sensor_id;sensor_type;location;lat;lon;timestamp;pressure;altitude;pressure_sealevel;temperature;humidity
58771;BME280;44539;42.962;1.596;2022-09-21T00:01:28;97473.19;;;8.72;93.26
58771;BME280;44539;42.962;1.596;2022-09-21T00:03:56;97472.88;;;8.75;93.16
58771;BME280;44539;42.962;1.596;2022-09-21T00:06:24;97471.47;;;8.89;93.25
58771;BME280;44539;42.962;1.596;2022-09-21T00:08:50;97473.69;;;9.02;91.69
58771;BME280;44539;42.962;1.596;2022-09-21T00:11:22;97468.81;;;8.89;92.10
58771;BME280;44539;42.962;1.596;2022-09-21T00:13:52;97472.34;;;8.97;92.17
58771;BME280;44539;42.962;1.596;2022-09-21T00:16:18;97470.94;;;9.19;91.08
58771;BME280;44539;42.962;1.596;2022-09-21T00:18:43;97463.97;;;9.10;90.75
58771;BME280;44539;42.962;1.596;2022-09-21T00:21:11;97467.13;;;8.79;92.01
58771;BME280;44539;42.962;1.596;2022-09-21T00:23:37;97467.47;;;8.58;93.57
58771;BME280;44539;42.962;1.596;2022-09-21T00:26:23;97476.72;;;8.54;94.05
58771;BME280;44539;42.962;1.596;2022-09-21T00:28:54;97467.00;;;8.63;93.73
58771;BME280;44539;42.962;1.596;2022-09-21T00:31:20;97464.22;;;8.65;93.40
58771;BME280;44539;42.962;1.596;2022-09-21T00:33:46;97469.09;;;8.77;92.60
58771;BME280;44539;42.962;1.596;2022-09-21T00:36:13;97470.75;;;8.78;92.76
58771;BME280;44539;42.962;1.596;2022-09-21T00:38:40;97469.81;;;8.88;91.99
58771;BME280;44539;42.962;1.596;2022-09-21T00:41:07;97464.53;;;8.96;91.14
58771;BME280;44539;42.962;1.596;2022-09-21T00:43:34;97469.03;;;8.95;91.29
58771;BME280;44539;42.962;1.596;2022-09-21T00:46:04;97472.75;;;8.85;91.66
58771;BME280;44539;42.962;1.596;2022-09-21T00:48:31;97454.16;;;8.76;91.62
58771;BME280;44539;42.962;1.596;2022-09-21T00:51:01;97458.38;;;8.61;93.27
58771;BME280;44539;42.962;1.596;2022-09-21T00:53:28;97453.53;;;8.83;91.77
58771;BME280;44539;42.962;1.596;2022-09-21T00:55:55;97455.38;;;8.56;92.77
58771;BME280;44539;42.962;1.596;2022-09-21T00:58:26;97459.78;;;8.29;94.00
58771;BME280;44539;42.962;1.596;2022-09-21T01:00:53;97459.94;;;8.46;93.85
58771;BME280;44539;42.962;1.596;2022-09-21T01:03:19;97459.88;;;8.64;93.25
58771;BME280;44539;42.962;1.596;2022-09-21T01:05:45;97461.69;;;8.89;91.36
58771;BME280;44539;42.962;1.596;2022-09-21T01:08:11;97464.53;;;8.88;90.51
58771;BME280;44539;42.962;1.596;2022-09-21T01:18:27;97446.75;;;8.54;92.27
58771;BME280;44539;42.962;1.596;2022-09-21T01:31:21;97456.00;;;8.76;90.97
58771;BME280;44539;42.962;1.596;2022-09-21T01:33:57;97449.91;;;8.57;91.85
58771;BME280;44539;42.962;1.596;2022-09-21T01:36:27;97452.66;;;8.30;93.09
58771;BME280;44539;42.962;1.596;2022-09-21T01:38:59;97440.41;;;8.29;93.50
58771;BME280;44539;42.962;1.596;2022-09-21T01:41:27;97441.06;;;8.05;95.02
58771;BME280;44539;42.962;1.596;2022-09-21T01:44:04;97439.38;;;8.04;95.65
58771;BME280;44539;42.962;1.596;2022-09-21T01:46:33;97442.84;;;8.22;94.31
58771;BME280;44539;42.962;1.596;2022-09-21T01:49:16;97440.88;;;8.42;93.08
58771;BME280;44539;42.962;1.596;2022-09-21T01:51:48;97439.94;;;8.33;93.13
58771;BME280;44539;42.962;1.596;2022-09-21T01:54:21;97438.38;;;8.23;93.90
58771;BME280;44539;42.962;1.596;2022-09-21T01:59:54;97434.44;;;8.27;93.83
58771;BME280;44539;42.962;1.596;2022-09-21T02:02:32;97425.38;;;8.29;92.91
58771;BME280;44539;42.962;1.596;2022-09-21T02:05:02;97426.16;;;8.22;93.49
58771;BME280;44539;42.962;1.596;2022-09-21T02:07:28;97429.56;;;7.78;95.74
58771;BME280;44539;42.962;1.596;2022-09-21T02:09:54;97429.94;;;8.01;95.42
58771;BME280;44539;42.962;1.596;2022-09-21T02:12:21;97428.38;;;8.52;92.10
58771;BME280;44539;42.962;1.596;2022-09-21T02:14:48;97432.31;;;8.48;91.43
58771;BME280;44539;42.962;1.596;2022-09-21T02:17:50;97428.91;;;8.56;91.00
58771;BME280;44539;42.962;1.596;2022-09-21T02:23:10;97425.75;;;8.34;92.21
58771;BME280;44539;42.962;1.596;2022-09-21T02:28:19;97429.22;;;8.17;92.77
58771;BME280;44539;42.962;1.596;2022-09-21T02:31:00;97427.22;;;7.93;94.19
58771;BME280;44539;42.962;1.596;2022-09-21T02:33:32;97432.53;;;8.11;93.34
58771;BME280;44539;42.962;1.596;2022-09-21T02:36:10;97425.34;;;8.03;94.04
58771;BME280;44539;42.962;1.596;2022-09-21T02:41:17;97428.59;;;7.79;95.01
58771;BME280;44539;42.962;1.596;2022-09-21T02:46:17;97434.25;;;7.84;95.93
58771;BME280;44539;42.962;1.596;2022-09-21T02:48:47;97425.56;;;7.92;95.16
58771;BME280;44539;42.962;1.596;2022-09-21T02:51:20;97435.38;;;8.00;94.29
58771;BME280;44539;42.962;1.596;2022-09-21T02:53:49;97431.53;;;7.94;94.47
58771;BME280;44539;42.962;1.596;2022-09-21T02:56:17;97432.16;;;7.88;94.19
58771;BME280;44539;42.962;1.596;2022-09-21T02:58:49;97426.94;;;7.96;93.73
58771;BME280;44539;42.962;1.596;2022-09-21T03:01:19;97431.53;;;7.94;93.86
58771;BME280;44539;42.962;1.596;2022-09-21T03:03:46;97432.28;;;7.86;93.80
58771;BME280;44539;42.962;1.596;2022-09-21T03:06:12;97431.38;;;7.77;94.62
58771;BME280;44539;42.962;1.596;2022-09-21T03:08:37;97429.19;;;7.73;95.24
58771;BME280;44539;42.962;1.596;2022-09-21T03:11:03;97434.47;;;7.91;94.60
58771;BME280;44539;42.962;1.596;2022-09-21T03:13:28;97426.84;;;7.70;95.05
58771;BME280;44539;42.962;1.596;2022-09-21T03:16:03;97427.97;;;7.67;95.51
58771;BME280;44539;42.962;1.596;2022-09-21T03:18:29;97417.03;;;7.80;94.84
58771;BME280;44539;42.962;1.596;2022-09-21T03:20:55;97424.19;;;7.70;94.90
58771;BME280;44539;42.962;1.596;2022-09-21T03:23:20;97429.38;;;7.62;95.61
58771;BME280;44539;42.962;1.596;2022-09-21T03:25:46;97425.00;;;7.52;95.75
58771;BME280;44539;42.962;1.596;2022-09-21T03:28:13;97423.50;;;7.50;96.74
58771;BME280;44539;42.962;1.596;2022-09-21T03:30:39;97423.13;;;7.45;96.68
58771;BME280;44539;42.962;1.596;2022-09-21T03:33:04;97419.94;;;7.59;96.00
58771;BME280;44539;42.962;1.596;2022-09-21T03:35:31;97423.88;;;7.37;96.75
58771;BME280;44539;42.962;1.596;2022-09-21T03:37:58;97409.63;;;7.20;98.09
58771;BME280;44539;42.962;1.596;2022-09-21T03:40:24;97417.88;;;7.35;97.38
58771;BME280;44539;42.962;1.596;2022-09-21T03:42:51;97419.88;;;7.51;96.87
58771;BME280;44539;42.962;1.596;2022-09-21T03:45:16;97418.75;;;7.53;96.23
58771;BME280;44539;42.962;1.596;2022-09-21T03:47:41;97406.63;;;7.33;96.60
58771;BME280;44539;42.962;1.596;2022-09-21T03:50:07;97409.38;;;7.41;96.50
58771;BME280;44539;42.962;1.596;2022-09-21T03:52:33;97413.19;;;7.29;96.83
58771;BME280;44539;42.962;1.596;2022-09-21T03:55:00;97409.97;;;7.35;96.23
58771;BME280;44539;42.962;1.596;2022-09-21T03:57:29;97406.59;;;7.43;96.00
58771;BME280;44539;42.962;1.596;2022-09-21T03:59:54;97414.56;;;7.51;95.39
58771;BME280;44539;42.962;1.596;2022-09-21T04:02:19;97404.31;;;7.48;95.51
58771;BME280;44539;42.962;1.596;2022-09-21T04:04:46;97397.97;;;7.59;94.72
58771;BME280;44539;42.962;1.596;2022-09-21T04:07:12;97401.69;;;7.48;94.67
58771;BME280;44539;42.962;1.596;2022-09-21T04:09:38;97400.69;;;7.49;94.61
58771;BME280;44539;42.962;1.596;2022-09-21T04:12:03;97409.06;;;7.44;94.61
58771;BME280;44539;42.962;1.596;2022-09-21T04:14:29;97399.22;;;7.19;95.86
58771;BME280;44539;42.962;1.596;2022-09-21T04:16:54;97394.69;;;7.29;95.88
58771;BME280;44539;42.962;1.596;2022-09-21T04:19:20;97401.34;;;7.33;96.33
58771;BME280;44539;42.962;1.596;2022-09-21T04:21:46;97400.78;;;7.11;96.59
58771;BME280;44539;42.962;1.596;2022-09-21T04:24:12;97398.47;;;7.26;96.59
58771;BME280;44539;42.962;1.596;2022-09-21T04:26:37;97402.94;;;7.26;96.46
58771;BME280;44539;42.962;1.596;2022-09-21T04:29:05;97404.50;;;7.19;96.00
58771;BME280;44539;42.962;1.596;2022-09-21T04:31:32;97393.66;;;7.22;95.81
58771;BME280;44539;42.962;1.596;2022-09-21T04:33:58;97397.94;;;7.23;96.29
58771;BME280;44539;42.962;1.596;2022-09-21T04:36:24;97399.16;;;7.01;96.87
58771;BME280;44539;42.962;1.596;2022-09-21T04:38:50;97397.66;;;6.98;97.51
58771;BME280;44539;42.962;1.596;2022-09-21T04:41:16;97402.53;;;6.93;97.70
58771;BME280;44539;42.962;1.596;2022-09-21T04:43:46;97394.47;;;6.94;97.76
58771;BME280;44539;42.962;1.596;2022-09-21T04:46:14;97409.41;;;6.76;98.23
58771;BME280;44539;42.962;1.596;2022-09-21T04:48:40;97403.75;;;6.71;98.61
58771;BME280;44539;42.962;1.596;2022-09-21T04:51:06;97401.16;;;6.89;98.99
58771;BME280;44539;42.962;1.596;2022-09-21T04:53:33;97405.47;;;7.18;98.00
58771;BME280;44539;42.962;1.596;2022-09-21T04:55:59;97406.50;;;7.52;95.35
58771;BME280;44539;42.962;1.596;2022-09-21T04:58:25;97402.22;;;7.51;95.05
58771;BME280;44539;42.962;1.596;2022-09-21T05:00:51;97406.41;;;7.44;95.07
58771;BME280;44539;42.962;1.596;2022-09-21T05:03:18;97400.38;;;7.34;95.46
58771;BME280;44539;42.962;1.596;2022-09-21T05:05:51;97405.59;;;6.98;96.77
58771;BME280;44539;42.962;1.596;2022-09-21T05:08:17;97408.81;;;6.92;98.34
58771;BME280;44539;42.962;1.596;2022-09-21T05:11:07;97419.88;;;6.95;98.57
58771;BME280;44539;42.962;1.596;2022-09-21T05:13:33;97408.66;;;6.93;97.86
58771;BME280;44539;42.962;1.596;2022-09-21T05:15:58;97413.94;;;6.93;98.64
58771;BME280;44539;42.962;1.596;2022-09-21T05:18:23;97415.63;;;7.12;98.90
58771;BME280;44539;42.962;1.596;2022-09-21T05:20:56;97419.03;;;7.32;96.55
58771;BME280;44539;42.962;1.596;2022-09-21T05:23:22;97414.44;;;7.34;95.84
58771;BME280;44539;42.962;1.596;2022-09-21T05:25:48;97410.47;;;7.21;96.20
58771;BME280;44539;42.962;1.596;2022-09-21T05:28:15;97409.41;;;7.13;96.61
58771;BME280;44539;42.962;1.596;2022-09-21T05:30:45;97408.94;;;7.18;96.87
58771;BME280;44539;42.962;1.596;2022-09-21T05:33:15;97408.69;;;7.39;95.93
58771;BME280;44539;42.962;1.596;2022-09-21T05:35:53;97411.19;;;7.59;94.51
58771;BME280;44539;42.962;1.596;2022-09-21T05:38:23;97408.31;;;7.70;92.80
58771;BME280;44539;42.962;1.596;2022-09-21T05:40:49;97409.25;;;7.61;92.84
58771;BME280;44539;42.962;1.596;2022-09-21T05:43:15;97404.19;;;7.49;92.94
58771;BME280;44539;42.962;1.596;2022-09-21T05:45:46;97409.25;;;7.43;93.41
58771;BME280;44539;42.962;1.596;2022-09-21T05:48:17;97410.97;;;7.34;93.90
58771;BME280;44539;42.962;1.596;2022-09-21T05:50:57;97411.16;;;7.23;95.41
58771;BME280;44539;42.962;1.596;2022-09-21T05:53:49;97419.47;;;7.28;95.66
58771;BME280;44539;42.962;1.596;2022-09-21T05:56:42;97428.59;;;7.06;96.39
58771;BME280;44539;42.962;1.596;2022-09-21T06:00:02;97419.38;;;6.92;97.40
58771;BME280;44539;42.962;1.596;2022-09-21T06:02:24;97427.19;;;7.11;97.86
58771;BME280;44539;42.962;1.596;2022-09-21T06:04:51;97417.59;;;7.10;97.51
58771;BME280;44539;42.962;1.596;2022-09-21T06:07:18;97418.59;;;7.09;97.98
58771;BME280;44539;42.962;1.596;2022-09-21T06:09:44;97420.03;;;7.49;95.60
58771;BME280;44539;42.962;1.596;2022-09-21T06:12:09;97430.41;;;7.33;96.10
58771;BME280;44539;42.962;1.596;2022-09-21T06:14:36;97428.91;;;7.30;96.03
58771;BME280;44539;42.962;1.596;2022-09-21T06:17:01;97424.34;;;7.23;96.70
58771;BME280;44539;42.962;1.596;2022-09-21T06:19:27;97423.31;;;7.33;96.34
58771;BME280;44539;42.962;1.596;2022-09-21T06:21:52;97418.38;;;7.21;96.31
58771;BME280;44539;42.962;1.596;2022-09-21T06:24:18;97420.69;;;7.06;97.86
58771;BME280;44539;42.962;1.596;2022-09-21T06:26:43;97424.50;;;6.93;99.12
58771;BME280;44539;42.962;1.596;2022-09-21T06:29:09;97422.75;;;7.12;97.99
58771;BME280;44539;42.962;1.596;2022-09-21T06:31:34;97427.00;;;7.23;97.21
58771;BME280;44539;42.962;1.596;2022-09-21T06:34:00;97426.84;;;7.24;96.78
58771;BME280;44539;42.962;1.596;2022-09-21T06:36:26;97420.53;;;7.35;96.23
58771;BME280;44539;42.962;1.596;2022-09-21T06:38:51;97427.81;;;7.23;97.14
58771;BME280;44539;42.962;1.596;2022-09-21T06:41:16;97422.94;;;7.28;97.90
58771;BME280;44539;42.962;1.596;2022-09-21T06:43:42;97426.53;;;7.27;97.75
58771;BME280;44539;42.962;1.596;2022-09-21T06:46:07;97426.13;;;7.04;98.88
58771;BME280;44539;42.962;1.596;2022-09-21T06:48:34;97431.63;;;6.83;100.00
58771;BME280;44539;42.962;1.596;2022-09-21T06:51:01;97436.69;;;7.04;100.00
58771;BME280;44539;42.962;1.596;2022-09-21T06:53:28;97426.41;;;7.01;100.00
58771;BME280;44539;42.962;1.596;2022-09-21T06:56:06;97430.38;;;6.87;100.00
58771;BME280;44539;42.962;1.596;2022-09-21T06:58:31;97430.19;;;6.89;100.00
58771;BME280;44539;42.962;1.596;2022-09-21T07:01:04;97423.50;;;7.04;100.00
58771;BME280;44539;42.962;1.596;2022-09-21T07:03:30;97425.72;;;7.27;100.00
58771;BME280;44539;42.962;1.596;2022-09-21T07:05:56;97423.75;;;7.29;100.00
58771;BME280;44539;42.962;1.596;2022-09-21T07:08:21;97424.22;;;7.42;100.00
58771;BME280;44539;42.962;1.596;2022-09-21T07:10:48;97425.56;;;7.74;100.00
58771;BME280;44539;42.962;1.596;2022-09-21T07:13:13;97426.22;;;8.12;100.00
58771;BME280;44539;42.962;1.596;2022-09-21T07:15:40;97424.75;;;8.35;98.83
58771;BME280;44539;42.962;1.596;2022-09-21T07:18:12;97423.28;;;8.59;97.43
58771;BME280;44539;42.962;1.596;2022-09-21T07:20:40;97427.88;;;8.75;95.62
58771;BME280;44539;42.962;1.596;2022-09-21T07:23:12;97424.25;;;8.84;95.85
58771;BME280;44539;42.962;1.596;2022-09-21T07:25:40;97415.72;;;8.98;97.34
58771;BME280;44539;42.962;1.596;2022-09-21T07:28:05;97425.34;;;8.99;97.76
58771;BME280;44539;42.962;1.596;2022-09-21T07:30:31;97414.09;;;9.06;97.41
58771;BME280;44539;42.962;1.596;2022-09-21T07:32:56;97416.97;;;9.20;97.67
58771;BME280;44539;42.962;1.596;2022-09-21T07:35:23;97413.19;;;9.31;97.81
58771;BME280;44539;42.962;1.596;2022-09-21T07:37:48;97413.25;;;9.48;97.66
58771;BME280;44539;42.962;1.596;2022-09-21T07:40:13;97424.38;;;9.59;97.62
58771;BME280;44539;42.962;1.596;2022-09-21T07:42:39;97418.31;;;9.84;97.06
58771;BME280;44539;42.962;1.596;2022-09-21T07:45:05;97421.28;;;10.13;95.68
58771;BME280;44539;42.962;1.596;2022-09-21T07:47:31;97417.97;;;10.19;96.13
58771;BME280;44539;42.962;1.596;2022-09-21T07:49:56;97410.19;;;10.34;96.44
58771;BME280;44539;42.962;1.596;2022-09-21T07:52:22;97416.47;;;10.58;94.06
58771;BME280;44539;42.962;1.596;2022-09-21T07:54:47;97413.34;;;10.62;95.46
58771;BME280;44539;42.962;1.596;2022-09-21T07:57:12;97399.69;;;10.74;94.56
58771;BME280;44539;42.962;1.596;2022-09-21T07:59:57;97407.09;;;10.95;93.14
58771;BME280;44539;42.962;1.596;2022-09-21T08:02:23;97410.84;;;11.17;91.41
58771;BME280;44539;42.962;1.596;2022-09-21T08:04:49;97404.84;;;11.23;90.26
58771;BME280;44539;42.962;1.596;2022-09-21T08:07:14;97411.59;;;11.34;90.17
58771;BME280;44539;42.962;1.596;2022-09-21T08:09:40;97415.13;;;11.57;86.40
58771;BME280;44539;42.962;1.596;2022-09-21T08:12:06;97412.63;;;11.87;80.68
58771;BME280;44539;42.962;1.596;2022-09-21T08:14:31;97409.72;;;12.20;80.43
58771;BME280;44539;42.962;1.596;2022-09-21T08:16:57;97405.03;;;12.45;80.56
58771;BME280;44539;42.962;1.596;2022-09-21T08:19:22;97407.25;;;12.56;79.90
58771;BME280;44539;42.962;1.596;2022-09-21T08:21:51;97413.72;;;12.77;79.60
58771;BME280;44539;42.962;1.596;2022-09-21T08:24:16;97414.94;;;13.04;78.64
58771;BME280;44539;42.962;1.596;2022-09-21T08:26:42;97413.88;;;13.20;77.04
58771;BME280;44539;42.962;1.596;2022-09-21T08:29:08;97419.88;;;13.37;75.78
58771;BME280;44539;42.962;1.596;2022-09-21T08:31:33;97415.66;;;13.42;74.04
58771;BME280;44539;42.962;1.596;2022-09-21T08:33:59;97413.81;;;13.43;74.70
58771;BME280;44539;42.962;1.596;2022-09-21T08:36:25;97408.53;;;13.50;74.45
58771;BME280;44539;42.962;1.596;2022-09-21T08:38:50;97402.28;;;13.57;73.59
58771;BME280;44539;42.962;1.596;2022-09-21T08:41:24;97395.50;;;13.76;71.92
58771;BME280;44539;42.962;1.596;2022-09-21T08:43:51;97397.09;;;13.92;70.46
58771;BME280;44539;42.962;1.596;2022-09-21T08:46:21;97397.63;;;14.02;71.43
58771;BME280;44539;42.962;1.596;2022-09-21T08:48:57;97394.25;;;14.15;68.75
58771;BME280;44539;42.962;1.596;2022-09-21T08:51:30;97382.31;;;14.39;70.22
58771;BME280;44539;42.962;1.596;2022-09-21T08:53:59;97370.13;;;14.58;68.79
58771;BME280;44539;42.962;1.596;2022-09-21T08:56:27;97378.69;;;14.75;66.96
58771;BME280;44539;42.962;1.596;2022-09-21T08:58:53;97381.22;;;14.83;67.00
58771;BME280;44539;42.962;1.596;2022-09-21T09:12:17;97374.75;;;15.61;64.64
58771;BME280;44539;42.962;1.596;2022-09-21T09:14:52;97365.53;;;15.77;63.62
58771;BME280;44539;42.962;1.596;2022-09-21T09:17:29;97368.28;;;15.97;62.75
58771;BME280;44539;42.962;1.596;2022-09-21T09:25:39;97357.78;;;16.35;63.75
58771;BME280;44539;42.962;1.596;2022-09-21T09:31:02;97357.97;;;16.40;61.70
58771;BME280;44539;42.962;1.596;2022-09-21T09:33:38;97354.47;;;16.46;59.81
58771;BME280;44539;42.962;1.596;2022-09-21T09:36:10;97351.13;;;16.58;60.97
58771;BME280;44539;42.962;1.596;2022-09-21T09:38:55;97349.06;;;16.80;58.29
58771;BME280;44539;42.962;1.596;2022-09-21T09:52:00;97328.63;;;17.44;53.91
58771;BME280;44539;42.962;1.596;2022-09-21T09:54:26;97339.06;;;17.59;55.36
58771;BME280;44539;42.962;1.596;2022-09-21T09:56:53;97328.81;;;17.81;55.04
58771;BME280;44539;42.962;1.596;2022-09-21T09:59:33;97321.19;;;17.78;54.90
58771;BME280;44539;42.962;1.596;2022-09-21T10:04:26;97320.03;;;17.99;55.66
58771;BME280;44539;42.962;1.596;2022-09-21T10:06:52;97314.38;;;18.07;55.43
58771;BME280;44539;42.962;1.596;2022-09-21T10:09:31;97306.38;;;18.25;52.65
58771;BME280;44539;42.962;1.596;2022-09-21T10:11:59;97306.97;;;18.27;52.32
58771;BME280;44539;42.962;1.596;2022-09-21T10:14:27;97307.41;;;18.24;52.75
58771;BME280;44539;42.962;1.596;2022-09-21T10:17:08;97308.28;;;18.43;54.33
58771;BME280;44539;42.962;1.596;2022-09-21T10:19:40;97302.00;;;18.49;52.16
58771;BME280;44539;42.962;1.596;2022-09-21T10:22:05;97296.59;;;18.74;51.04
58771;BME280;44539;42.962;1.596;2022-09-21T10:24:37;97294.28;;;18.96;49.03
58771;BME280;44539;42.962;1.596;2022-09-21T10:29:44;97293.69;;;18.94;49.11
58771;BME280;44539;42.962;1.596;2022-09-21T10:34:58;97290.59;;;19.28;44.86
58771;BME280;44539;42.962;1.596;2022-09-21T10:37:28;97297.25;;;19.25;46.51
58771;BME280;44539;42.962;1.596;2022-09-21T10:39:55;97293.34;;;19.40;48.38
58771;BME280;44539;42.962;1.596;2022-09-21T10:42:21;97291.50;;;19.52;47.93
58771;BME280;44539;42.962;1.596;2022-09-21T10:44:53;97296.97;;;19.33;49.12
58771;BME280;44539;42.962;1.596;2022-09-21T10:48:07;97284.72;;;19.49;42.65
58771;BME280;44539;42.962;1.596;2022-09-21T10:50:44;97285.41;;;19.75;45.12
58771;BME280;44539;42.962;1.596;2022-09-21T10:53:11;97277.53;;;19.73;44.84
58771;BME280;44539;42.962;1.596;2022-09-21T10:55:43;97281.81;;;19.93;43.77
58771;BME280;44539;42.962;1.596;2022-09-21T10:58:13;97272.34;;;20.14;43.00
58771;BME280;44539;42.962;1.596;2022-09-21T11:00:44;97272.94;;;20.39;43.16
58771;BME280;44539;42.962;1.596;2022-09-21T11:03:39;97262.28;;;20.45;42.24
58771;BME280;44539;42.962;1.596;2022-09-21T11:06:19;97263.66;;;20.71;41.80
58771;BME280;44539;42.962;1.596;2022-09-21T11:09:05;97259.94;;;20.60;42.78
58771;BME280;44539;42.962;1.596;2022-09-21T11:11:45;97265.59;;;20.99;43.33
58771;BME280;44539;42.962;1.596;2022-09-21T11:14:50;97257.63;;;21.04;42.97
58771;BME280;44539;42.962;1.596;2022-09-21T11:17:44;97255.06;;;20.97;41.64
58771;BME280;44539;42.962;1.596;2022-09-21T11:20:29;97259.59;;;21.09;41.04
58771;BME280;44539;42.962;1.596;2022-09-21T11:23:08;97259.88;;;21.24;41.23
58771;BME280;44539;42.962;1.596;2022-09-21T11:29:01;97268.41;;;21.04;42.04
58771;BME280;44539;42.962;1.596;2022-09-21T11:31:40;97252.06;;;21.51;40.44
58771;BME280;44539;42.962;1.596;2022-09-21T11:51:33;97252.69;;;21.87;39.76
58771;BME280;44539;42.962;1.596;2022-09-21T12:04:39;97247.88;;;22.62;41.35
58771;BME280;44539;42.962;1.596;2022-09-21T12:07:29;97246.66;;;22.53;38.62
58771;BME280;44539;42.962;1.596;2022-09-21T12:10:28;97237.72;;;22.52;39.97
58771;BME280;44539;42.962;1.596;2022-09-21T12:18:08;97244.97;;;22.91;39.21
58771;BME280;44539;42.962;1.596;2022-09-21T12:23:18;97235.78;;;22.31;38.50
58771;BME280;44539;42.962;1.596;2022-09-21T12:25:49;97228.91;;;22.62;37.60
58771;BME280;44539;42.962;1.596;2022-09-21T12:28:33;97237.28;;;22.60;38.80
58771;BME280;44539;42.962;1.596;2022-09-21T12:31:11;97235.59;;;22.37;38.18
58771;BME280;44539;42.962;1.596;2022-09-21T12:33:50;97231.56;;;22.40;36.79
58771;BME280;44539;42.962;1.596;2022-09-21T12:36:21;97224.19;;;22.52;36.95
58771;BME280;44539;42.962;1.596;2022-09-21T12:39:23;97229.94;;;23.22;38.26
58771;BME280;44539;42.962;1.596;2022-09-21T12:45:00;97217.75;;;23.24;37.17
58771;BME280;44539;42.962;1.596;2022-09-21T12:47:58;97221.72;;;23.39;36.20
58771;BME280;44539;42.962;1.596;2022-09-21T12:50:40;97217.84;;;23.89;36.08
58771;BME280;44539;42.962;1.596;2022-09-21T12:53:16;97214.88;;;23.63;35.98
58771;BME280;44539;42.962;1.596;2022-09-21T12:55:54;97218.63;;;23.57;35.71
58771;BME280;44539;42.962;1.596;2022-09-21T13:03:29;97204.38;;;24.04;35.61
58771;BME280;44539;42.962;1.596;2022-09-21T13:06:11;97211.47;;;24.05;36.43
58771;BME280;44539;42.962;1.596;2022-09-21T13:08:45;97204.59;;;23.93;36.21
58771;BME280;44539;42.962;1.596;2022-09-21T13:11:11;97208.13;;;24.41;36.54
58771;BME280;44539;42.962;1.596;2022-09-21T13:13:59;97204.75;;;23.81;37.00
58771;BME280;44539;42.962;1.596;2022-09-21T13:16:35;97193.28;;;23.74;37.46
58771;BME280;44539;42.962;1.596;2022-09-21T13:21:31;97192.88;;;23.87;37.91
58771;BME280;44539;42.962;1.596;2022-09-21T13:23:59;97186.72;;;23.37;38.44
58771;BME280;44539;42.962;1.596;2022-09-21T13:32:49;97186.78;;;24.07;37.36
58771;BME280;44539;42.962;1.596;2022-09-21T13:44:52;97186.38;;;24.78;35.92
58771;BME280;44539;42.962;1.596;2022-09-21T13:47:36;97189.13;;;24.41;36.52
58771;BME280;44539;42.962;1.596;2022-09-21T13:50:27;97191.00;;;24.78;36.92
58771;BME280;44539;42.962;1.596;2022-09-21T13:52:57;97190.38;;;25.29;35.40
58771;BME280;44539;42.962;1.596;2022-09-21T13:55:31;97191.59;;;24.90;35.57
58771;BME280;44539;42.962;1.596;2022-09-21T13:58:01;97186.31;;;25.77;35.05
58771;BME280;44539;42.962;1.596;2022-09-21T14:00:55;97185.75;;;25.39;33.79
58771;BME280;44539;42.962;1.596;2022-09-21T14:03:45;97185.56;;;24.78;33.83
58771;BME280;44539;42.962;1.596;2022-09-21T14:06:21;97184.28;;;25.01;35.01
58771;BME280;44539;42.962;1.596;2022-09-21T14:08:59;97183.59;;;25.46;36.76
58771;BME280;44539;42.962;1.596;2022-09-21T14:11:31;97180.34;;;26.16;32.33
58771;BME280;44539;42.962;1.596;2022-09-21T14:20:00;97175.81;;;27.32;31.68
58771;BME280;44539;42.962;1.596;2022-09-21T14:24:48;97170.41;;;28.24;31.86
58771;BME280;44539;42.962;1.596;2022-09-21T14:27:32;97164.84;;;28.35;30.34
58771;BME280;44539;42.962;1.596;2022-09-21T14:32:33;97167.72;;;28.48;29.88
58771;BME280;44539;42.962;1.596;2022-09-21T14:35:08;97167.84;;;29.05;30.54
58771;BME280;44539;42.962;1.596;2022-09-21T14:37:54;97168.69;;;29.25;29.75
58771;BME280;44539;42.962;1.596;2022-09-21T14:40:24;97166.56;;;28.79;30.58
58771;BME280;44539;42.962;1.596;2022-09-21T14:42:52;97157.47;;;29.26;28.46
58771;BME280;44539;42.962;1.596;2022-09-21T14:45:23;97161.94;;;29.74;29.84
58771;BME280;44539;42.962;1.596;2022-09-21T14:48:10;97160.03;;;29.75;28.27
58771;BME280;44539;42.962;1.596;2022-09-21T14:50:51;97164.00;;;29.82;28.37
58771;BME280;44539;42.962;1.596;2022-09-21T14:59:53;97161.75;;;30.17;28.14
58771;BME280;44539;42.962;1.596;2022-09-21T15:02:23;97162.53;;;29.71;27.09
58771;BME280;44539;42.962;1.596;2022-09-21T15:04:53;97167.81;;;28.86;28.43
58771;BME280;44539;42.962;1.596;2022-09-21T15:16:20;97165.22;;;29.38;28.93
58771;BME280;44539;42.962;1.596;2022-09-21T15:18:59;97169.28;;;29.60;27.21
58771;BME280;44539;42.962;1.596;2022-09-21T15:21:31;97159.94;;;29.04;28.39
58771;BME280;44539;42.962;1.596;2022-09-21T15:23:58;97160.75;;;29.04;28.89
58771;BME280;44539;42.962;1.596;2022-09-21T15:26:29;97164.84;;;29.97;27.76
58771;BME280;44539;42.962;1.596;2022-09-21T15:29:03;97159.06;;;30.31;26.91
58771;BME280;44539;42.962;1.596;2022-09-21T15:31:33;97169.72;;;30.60;28.31
58771;BME280;44539;42.962;1.596;2022-09-21T15:34:00;97154.28;;;30.78;27.49
58771;BME280;44539;42.962;1.596;2022-09-21T15:36:29;97157.72;;;30.84;27.14
58771;BME280;44539;42.962;1.596;2022-09-21T15:38:55;97161.06;;;30.81;27.31
58771;BME280;44539;42.962;1.596;2022-09-21T15:41:45;97162.34;;;30.14;26.86
58771;BME280;44539;42.962;1.596;2022-09-21T15:44:24;97154.28;;;30.78;26.39
58771;BME280;44539;42.962;1.596;2022-09-21T15:46:56;97155.09;;;30.51;26.66
58771;BME280;44539;42.962;1.596;2022-09-21T15:49:25;97153.19;;;30.51;25.77
58771;BME280;44539;42.962;1.596;2022-09-21T15:52:44;97148.56;;;31.02;26.92
58771;BME280;44539;42.962;1.596;2022-09-21T15:55:03;97143.81;;;31.44;25.88
58771;BME280;44539;42.962;1.596;2022-09-21T15:57:39;97145.50;;;31.54;25.60
58771;BME280;44539;42.962;1.596;2022-09-21T16:02:38;97135.88;;;31.65;24.56
58771;BME280;44539;42.962;1.596;2022-09-21T16:05:07;97147.94;;;31.78;24.25
58771;BME280;44539;42.962;1.596;2022-09-21T16:07:37;97147.16;;;31.41;26.82
58771;BME280;44539;42.962;1.596;2022-09-21T16:13:13;97139.09;;;31.90;25.61